createdAt,value
2018-05-07T00:01:47.299Z,16.24
2018-05-07T00:04:13.151Z,16.23
2018-05-07T00:06:39.025Z,16.23
2018-05-07T00:09:04.966Z,16.28
2018-05-07T00:11:30.741Z,16.19
2018-05-07T00:13:58.312Z,16.13
2018-05-07T00:16:24.161Z,16.07
2018-05-07T00:18:52.987Z,15.99
2018-05-07T00:21:18.806Z,15.87
2018-05-07T00:23:47.598Z,15.73
2018-05-07T00:26:13.446Z,15.67
2018-05-07T00:28:42.444Z,15.61
2018-05-07T00:31:08.290Z,15.60
2018-05-07T00:33:36.842Z,15.55
2018-05-07T00:36:02.769Z,15.61
2018-05-07T00:40:59.722Z,15.24
2018-05-07T00:43:25.613Z,15.18
2018-05-07T00:45:51.496Z,15.12
2018-05-07T00:48:17.295Z,15.06
2018-05-07T00:50:44.316Z,15.12
2018-05-07T00:53:10.178Z,15.15
2018-05-07T00:55:39.328Z,15.08
2018-05-07T00:58:05.218Z,15.02
2018-05-07T01:00:33.081Z,14.96
2018-05-07T01:02:58.923Z,14.99
2018-05-07T01:05:27.582Z,15.12
2018-05-07T01:07:53.433Z,15.18
2018-05-07T01:10:22.201Z,15.16
2018-05-07T01:12:48.083Z,15.05
2018-05-07T01:17:44.766Z,15.08
2018-05-07T01:20:10.622Z,15.11
2018-05-07T01:22:36.508Z,15.05
2018-05-07T01:25:02.430Z,14.88
2018-05-07T01:27:28.750Z,14.60
2018-05-07T01:29:54.579Z,14.49
2018-05-07T01:32:24.428Z,14.37
2018-05-07T01:34:50.316Z,14.34
2018-05-07T01:37:18.486Z,14.26
2018-05-07T01:39:44.359Z,14.09
2018-05-07T01:42:13.193Z,13.77
2018-05-07T01:44:39.156Z,13.57
2018-05-07T01:47:08.524Z,13.58
2018-05-07T01:49:34.380Z,13.55
2018-05-07T01:52:03.446Z,13.56
2018-05-07T01:54:29.284Z,13.39
2018-05-07T01:56:55.177Z,13.38
2018-05-07T01:59:21.031Z,13.42
2018-05-07T02:01:46.857Z,13.39
2018-05-07T02:04:15.866Z,13.33
2018-05-07T02:06:41.716Z,13.45
2018-05-07T02:09:09.033Z,13.49
2018-05-07T02:11:34.910Z,13.54
2018-05-07T02:14:04.055Z,13.52
2018-05-07T02:16:29.913Z,13.52
2018-05-07T02:18:58.894Z,13.45
2018-05-07T02:21:24.763Z,13.44
2018-05-07T02:23:53.932Z,13.41
2018-05-07T02:26:19.791Z,13.27
2018-05-07T02:28:47.898Z,13.24
2018-05-07T02:31:13.795Z,13.29
2018-05-07T02:33:39.696Z,13.25
2018-05-07T02:36:05.627Z,13.20
2018-05-07T02:38:31.577Z,13.22
2018-05-07T02:41:01.227Z,13.27
2018-05-07T02:43:27.128Z,13.27
2018-05-07T02:45:54.532Z,13.25
2018-05-07T02:48:20.442Z,13.29
2018-05-07T02:50:49.563Z,13.15
2018-05-07T02:53:15.463Z,13.06
2018-05-07T02:55:44.411Z,12.96
2018-05-07T02:58:10.316Z,12.94
2018-05-07T03:00:40.208Z,12.99
2018-05-07T03:03:06.079Z,12.95
2018-05-07T03:05:35.142Z,12.94
2018-05-07T03:08:01.048Z,12.95
2018-05-07T03:10:26.991Z,12.96
2018-05-07T03:12:53.032Z,12.86
2018-05-07T03:15:18.937Z,12.72
2018-05-07T03:17:44.861Z,12.75
2018-05-07T03:20:10.766Z,12.69
2018-05-07T03:22:39.895Z,12.66
2018-05-07T03:25:05.848Z,12.63
2018-05-07T03:27:35.558Z,12.65
2018-05-07T03:30:01.452Z,12.63
2018-05-07T03:32:30.725Z,12.64
2018-05-07T03:34:56.577Z,12.65
2018-05-07T03:37:25.590Z,12.65
2018-05-07T03:39:51.472Z,12.70
2018-05-07T03:42:18.447Z,12.64
2018-05-07T03:44:44.348Z,12.70
2018-05-07T03:47:10.240Z,12.68
2018-05-07T03:49:36.143Z,12.60
2018-05-07T03:52:02.035Z,12.45
2018-05-07T03:54:31.007Z,12.17
2018-05-07T03:56:56.956Z,12.12
2018-05-07T03:59:26.012Z,12.23
2018-05-07T04:01:51.890Z,12.21
2018-05-07T04:04:20.873Z,12.09
2018-05-07T04:06:46.771Z,12.09
2018-05-07T04:09:15.955Z,12.18
2018-05-07T04:11:41.851Z,12.10
2018-05-07T04:14:09.193Z,12.04
2018-05-07T04:16:47.397Z,11.97
2018-05-07T04:19:25.617Z,11.84
2018-05-07T04:22:04.011Z,11.90
2018-05-07T04:24:29.913Z,11.90
2018-05-07T04:26:55.824Z,11.88
2018-05-07T04:29:21.714Z,12.07
2018-05-07T04:31:47.627Z,12.19
2018-05-07T04:34:13.510Z,12.19
2018-05-07T04:36:39.447Z,12.11
2018-05-07T04:39:05.382Z,12.14
2018-05-07T04:41:31.287Z,12.24
2018-05-07T04:43:57.140Z,12.37
2018-05-07T04:46:23.039Z,12.41
2018-05-07T04:48:48.997Z,12.50
2018-05-07T04:51:14.820Z,12.57
2018-05-07T04:53:40.721Z,12.51
2018-05-07T04:56:06.595Z,12.57
2018-05-07T04:58:32.518Z,12.56
2018-05-07T05:00:58.418Z,12.54
2018-05-07T05:03:24.359Z,12.68
2018-05-07T05:05:50.263Z,12.82
2018-05-07T05:08:16.135Z,12.87
2018-05-07T05:10:42.008Z,12.87
2018-05-07T05:13:07.935Z,12.80
2018-05-07T05:15:33.861Z,12.83
2018-05-07T05:17:59.801Z,12.83
2018-05-07T05:20:25.678Z,12.97
2018-05-07T05:22:51.585Z,13.12
2018-05-07T05:25:17.488Z,13.25
2018-05-07T05:27:43.399Z,13.39
2018-05-07T05:30:09.323Z,13.56
2018-05-07T05:32:35.895Z,13.68
2018-05-07T05:35:01.813Z,13.79
2018-05-07T05:37:27.716Z,13.84
2018-05-07T05:39:53.625Z,13.84
2018-05-07T05:42:19.523Z,14.02
2018-05-07T05:44:46.187Z,14.26
2018-05-07T05:47:12.052Z,14.42
2018-05-07T05:49:40.860Z,14.68
2018-05-07T05:52:06.788Z,14.84
2018-05-07T05:54:36.644Z,15.02
2018-05-07T05:57:02.553Z,15.22
2018-05-07T05:59:30.292Z,15.48
2018-05-07T06:01:56.176Z,15.58
2018-05-07T06:04:25.496Z,15.60
2018-05-07T06:06:51.398Z,15.79
2018-05-07T06:09:20.751Z,15.92
2018-05-07T06:11:46.691Z,15.77
2018-05-07T06:14:12.625Z,16.06
2018-05-07T06:16:38.553Z,16.20
2018-05-07T06:19:04.446Z,16.40
2018-05-07T06:21:31.886Z,16.53
2018-05-07T06:23:57.814Z,16.44
2018-05-07T06:26:26.802Z,16.59
2018-05-07T06:28:52.702Z,16.75
2018-05-07T06:31:21.670Z,16.80
2018-05-07T06:33:47.599Z,17.00
2018-05-07T06:36:16.557Z,17.25
2018-05-07T06:38:42.465Z,17.53
2018-05-07T06:41:10.643Z,17.70
2018-05-07T06:43:36.524Z,17.91
2018-05-07T06:46:05.828Z,17.76
2018-05-07T06:48:31.658Z,17.91
2018-05-07T06:50:57.533Z,18.16
2018-05-07T06:53:23.432Z,18.34
2018-05-07T06:55:49.368Z,18.56
2018-05-07T06:58:16.702Z,18.51
2018-05-07T07:00:42.615Z,18.59
2018-05-07T07:03:11.909Z,18.64
2018-05-07T07:05:37.807Z,18.83
2018-05-07T07:08:07.062Z,18.92
2018-05-07T07:10:32.852Z,18.99
2018-05-07T07:13:00.898Z,19.21
2018-05-07T07:15:26.951Z,19.34
2018-05-07T07:17:56.294Z,19.22
2018-05-07T07:20:22.177Z,19.39
2018-05-07T07:22:51.572Z,18.86
2018-05-07T07:25:17.454Z,19.22
2018-05-07T07:27:43.341Z,19.58
2018-05-07T07:30:09.247Z,19.96
2018-05-07T07:32:35.166Z,20.01
2018-05-07T07:35:02.896Z,20.35
2018-05-07T07:37:28.800Z,20.46
2018-05-07T07:39:57.940Z,20.38
2018-05-07T07:42:23.851Z,20.56
2018-05-07T07:44:52.880Z,20.75
2018-05-07T07:47:18.847Z,20.93
2018-05-07T07:49:47.839Z,20.96
2018-05-07T07:52:13.730Z,20.85
2018-05-07T07:54:40.928Z,20.62
2018-05-07T07:57:06.816Z,20.58
2018-05-07T07:59:35.858Z,20.60
2018-05-07T08:02:01.743Z,20.43
2018-05-07T08:04:27.638Z,20.51
2018-05-07T08:06:53.582Z,20.96
2018-05-07T08:09:19.462Z,21.43
2018-05-07T08:11:49.095Z,21.69
2018-05-07T08:14:14.958Z,21.29
2018-05-07T08:16:42.132Z,21.51
2018-05-07T08:19:08.024Z,21.47
2018-05-07T08:21:37.273Z,21.09
2018-05-07T08:24:03.152Z,20.98
2018-05-07T08:26:32.579Z,21.12
2018-05-07T08:28:58.460Z,21.75
2018-05-07T08:31:25.980Z,21.88
2018-05-07T08:33:51.854Z,21.93
2018-05-07T08:36:20.473Z,22.38
2018-05-07T08:38:46.372Z,22.58
2018-05-07T08:41:12.257Z,22.39
2018-05-07T08:43:38.175Z,22.40
2018-05-07T08:46:04.076Z,22.56
2018-05-07T08:48:33.728Z,22.05
2018-05-07T08:50:59.696Z,21.30
2018-05-07T08:53:28.838Z,21.83
2018-05-07T08:55:54.739Z,22.24
2018-05-07T08:58:23.871Z,22.37
2018-05-07T09:00:49.758Z,22.91
2018-05-07T09:03:17.575Z,23.27
2018-05-07T09:05:43.490Z,22.90
2018-05-07T09:08:12.538Z,22.75
2018-05-07T09:10:38.513Z,23.14
2018-05-07T09:13:06.361Z,23.53
2018-05-07T09:15:32.268Z,23.60
2018-05-07T09:17:58.129Z,23.26
2018-05-07T09:20:24.035Z,23.73
2018-05-07T09:22:49.943Z,23.94
2018-05-07T09:25:18.363Z,24.24
2018-05-07T09:27:44.260Z,23.83
2018-05-07T09:30:14.179Z,23.79
2018-05-07T09:32:40.064Z,23.69
2018-05-07T09:35:09.096Z,23.84
2018-05-07T09:37:34.996Z,23.15
2018-05-07T09:40:03.962Z,23.19
2018-05-07T09:42:29.835Z,23.38
2018-05-07T09:44:56.859Z,23.89
2018-05-07T09:47:22.734Z,23.92
2018-05-07T09:49:51.489Z,24.30
2018-05-07T09:52:17.476Z,24.49
2018-05-07T09:54:43.314Z,24.80
2018-05-07T09:57:09.287Z,25.04
2018-05-07T09:59:35.125Z,24.85
2018-05-07T10:02:04.177Z,24.93
2018-05-07T10:04:30.058Z,25.32
2018-05-07T10:06:59.006Z,25.53
2018-05-07T10:09:24.880Z,25.41
2018-05-07T10:11:52.707Z,25.28
2018-05-07T10:14:18.639Z,25.77
2018-05-07T10:16:48.305Z,26.21
2018-05-07T10:19:14.242Z,25.46
2018-05-07T10:21:42.135Z,25.49
2018-05-07T10:24:08.074Z,24.57
2018-05-07T10:26:37.812Z,24.66
2018-05-07T10:29:03.671Z,24.23
2018-05-07T10:31:29.579Z,25.19
2018-05-07T10:33:55.479Z,25.22
2018-05-07T10:36:21.367Z,25.08
2018-05-07T10:38:49.288Z,25.26
2018-05-07T10:41:15.221Z,25.75
2018-05-07T10:43:44.252Z,26.11
2018-05-07T10:46:10.180Z,26.12
2018-05-07T10:48:38.019Z,26.32
2018-05-07T10:51:03.923Z,26.72
2018-05-07T10:53:33.829Z,26.84
2018-05-07T10:55:59.735Z,26.72
2018-05-07T10:58:27.402Z,26.02
2018-05-07T11:00:53.285Z,26.39
2018-05-07T11:03:22.680Z,26.97
2018-05-07T11:05:48.552Z,27.39
2018-05-07T11:08:14.427Z,27.21
2018-05-07T11:10:40.414Z,27.50
2018-05-07T11:13:06.311Z,27.89
2018-05-07T11:15:35.526Z,28.21
2018-05-07T11:18:01.451Z,28.56
2018-05-07T11:20:29.182Z,28.93
2018-05-07T11:22:55.124Z,29.00
2018-05-07T11:25:24.735Z,29.35
2018-05-07T11:27:50.605Z,29.34
2018-05-07T11:30:19.796Z,29.56
2018-05-07T11:32:45.671Z,29.91
2018-05-07T11:35:13.516Z,28.64
2018-05-07T11:37:39.406Z,28.48
2018-05-07T11:40:09.279Z,29.30
2018-05-07T11:42:35.193Z,29.71
2018-05-07T11:45:01.195Z,29.65
2018-05-07T11:47:27.101Z,29.88
2018-05-07T11:49:52.983Z,30.21
2018-05-07T11:52:19.678Z,30.18
2018-05-07T11:54:45.621Z,29.33
2018-05-07T11:57:15.468Z,28.59
2018-05-07T11:59:41.365Z,28.32
2018-05-07T12:02:08.826Z,28.72
2018-05-07T12:04:34.724Z,29.45
2018-05-07T12:07:03.091Z,29.52
2018-05-07T12:09:29.010Z,30.32
2018-05-07T12:11:57.622Z,30.39
2018-05-07T12:14:23.589Z,30.27
2018-05-07T12:16:52.515Z,30.05
2018-05-07T12:19:18.438Z,30.65
2018-05-07T12:21:44.439Z,30.39
2018-05-07T12:24:10.371Z,30.03
2018-05-07T12:26:36.319Z,30.12
2018-05-07T12:29:05.429Z,29.57
2018-05-07T12:31:31.465Z,30.06
2018-05-07T12:33:59.208Z,30.25
2018-05-07T12:36:25.111Z,30.74
2018-05-07T12:38:54.109Z,30.84
2018-05-07T12:41:20.035Z,30.79
2018-05-07T12:43:49.783Z,30.15
2018-05-07T12:46:15.687Z,29.66
2018-05-07T12:48:43.321Z,27.96
2018-05-07T12:51:09.229Z,28.08
2018-05-07T12:53:38.071Z,28.93
2018-05-07T12:56:03.963Z,29.70
2018-05-07T12:58:29.902Z,30.13
2018-05-07T13:00:55.797Z,30.21
2018-05-07T13:03:21.664Z,30.76
2018-05-07T13:05:51.510Z,31.00
2018-05-07T13:08:17.402Z,30.37
2018-05-07T13:10:46.341Z,30.77
2018-05-07T13:13:12.235Z,30.86
2018-05-07T13:15:39.154Z,30.93
2018-05-07T13:18:05.085Z,30.44
2018-05-07T13:20:34.405Z,30.23
2018-05-07T13:23:00.306Z,30.30
2018-05-07T13:25:30.094Z,30.57
2018-05-07T13:27:56.067Z,30.71
2018-05-07T13:30:23.769Z,30.60
2018-05-07T13:32:49.679Z,30.32
2018-05-07T13:35:15.567Z,30.51
2018-05-07T13:37:41.476Z,30.62
2018-05-07T13:40:07.368Z,30.89
2018-05-07T13:42:36.654Z,30.63
2018-05-07T13:45:02.595Z,30.25
2018-05-07T13:47:31.534Z,30.44
2018-05-07T13:49:57.419Z,30.59
2018-05-07T13:52:25.270Z,31.01
2018-05-07T13:54:51.171Z,31.07
2018-05-07T13:57:21.011Z,31.41
2018-05-07T13:59:46.897Z,31.24
2018-05-07T14:02:13.937Z,30.83
2018-05-07T14:04:39.799Z,30.69
2018-05-07T14:07:08.647Z,30.50
2018-05-07T14:09:34.522Z,29.57
2018-05-07T14:12:00.449Z,30.04
2018-05-07T14:14:26.435Z,29.93
2018-05-07T14:16:52.328Z,30.40
2018-05-07T14:19:21.760Z,31.02
2018-05-07T14:21:47.639Z,30.44
2018-05-07T14:24:15.471Z,30.29
2018-05-07T14:26:41.378Z,29.06
2018-05-07T14:29:09.980Z,28.84
2018-05-07T14:31:35.911Z,29.72
2018-05-07T14:34:04.563Z,30.47
2018-05-07T14:36:30.490Z,30.78
2018-05-07T14:38:59.603Z,30.80
2018-05-07T14:41:25.465Z,30.79
2018-05-07T14:43:55.430Z,31.34
2018-05-07T14:46:21.353Z,31.22
2018-05-07T14:48:47.275Z,31.36
2018-05-07T14:51:13.230Z,31.47
2018-05-07T14:53:39.162Z,31.29
2018-05-07T14:56:06.267Z,31.66
2018-05-07T14:58:32.179Z,31.84
2018-05-07T15:01:01.213Z,32.13
2018-05-07T15:03:27.163Z,31.85
2018-05-07T15:05:55.017Z,31.72
2018-05-07T15:08:20.993Z,31.28
2018-05-07T15:10:49.982Z,30.99
2018-05-07T15:13:15.890Z,31.17
2018-05-07T15:15:44.603Z,30.80
2018-05-07T15:18:10.505Z,30.93
2018-05-07T15:20:39.499Z,31.06
2018-05-07T15:23:05.412Z,30.87
2018-05-07T15:25:31.333Z,30.48
2018-05-07T15:27:57.243Z,30.11
2018-05-07T15:30:23.143Z,30.12
2018-05-07T15:32:52.119Z,30.19
2018-05-07T15:35:17.973Z,30.52
2018-05-07T15:37:47.111Z,30.48
2018-05-07T15:40:13.047Z,30.36
2018-05-07T15:42:42.151Z,30.13
2018-05-07T15:45:08.018Z,30.33
2018-05-07T15:47:36.977Z,30.31
2018-05-07T15:50:02.862Z,30.25
2018-05-07T15:52:30.715Z,29.59
2018-05-07T15:54:56.659Z,29.62
2018-05-07T15:57:24.474Z,29.83
2018-05-07T15:59:50.373Z,30.16
2018-05-07T16:02:16.246Z,30.17
2018-05-07T16:04:42.153Z,30.26
2018-05-07T16:07:08.059Z,30.04
2018-05-07T16:09:37.936Z,30.17
2018-05-07T16:12:03.880Z,29.92
2018-05-07T16:14:31.491Z,29.80
2018-05-07T16:16:57.424Z,29.54
2018-05-07T16:19:27.338Z,29.46
2018-05-07T16:21:53.256Z,29.43
2018-05-07T16:24:20.974Z,29.40
2018-05-07T16:26:46.937Z,29.36
2018-05-07T16:29:16.065Z,28.93
2018-05-07T16:31:41.983Z,29.21
2018-05-07T16:34:11.322Z,29.18
2018-05-07T16:36:37.190Z,28.97
2018-05-07T16:39:03.185Z,28.99
2018-05-07T16:41:29.055Z,28.95
2018-05-07T16:43:54.950Z,28.60
2018-05-07T16:46:21.431Z,28.28
2018-05-07T16:48:47.419Z,28.19
2018-05-07T16:51:16.259Z,28.07
2018-05-07T16:53:42.158Z,27.86
2018-05-07T16:56:11.100Z,27.53
2018-05-07T16:58:37.028Z,27.28
2018-05-07T17:01:05.983Z,27.38
2018-05-07T17:03:31.934Z,27.10
2018-05-07T17:06:00.879Z,26.96
2018-05-07T17:08:26.812Z,26.83
2018-05-07T17:10:55.902Z,26.52
2018-05-07T17:13:21.841Z,26.43
2018-05-07T17:15:47.759Z,26.08
2018-05-07T17:18:13.635Z,25.95
2018-05-07T17:20:39.547Z,25.74
2018-05-07T17:23:07.343Z,25.81
2018-05-07T17:25:33.227Z,25.67
2018-05-07T17:28:02.455Z,25.59
2018-05-07T17:30:28.349Z,25.40
2018-05-07T17:32:56.366Z,25.41
2018-05-07T17:35:22.255Z,25.31
2018-05-07T17:37:51.363Z,25.39
2018-05-07T17:40:17.248Z,25.30
2018-05-07T17:42:46.532Z,25.01
2018-05-07T17:58:45.463Z,24.83
2018-05-07T18:01:11.360Z,24.70
2018-05-07T18:03:37.283Z,24.55
2018-05-07T18:06:03.207Z,24.53
2018-05-07T18:08:32.253Z,24.43
2018-05-07T18:10:59.903Z,24.37
2018-05-07T18:13:25.806Z,24.34
2018-05-07T18:15:52.527Z,24.21
2018-05-07T18:18:18.409Z,24.15
2018-05-07T18:20:44.330Z,24.05
2018-05-07T18:23:10.233Z,24.06
2018-05-07T18:25:36.983Z,24.00
2018-05-07T18:28:02.906Z,23.96
2018-05-07T18:30:32.482Z,23.88
2018-05-07T18:32:58.379Z,23.87
2018-05-07T18:35:28.048Z,23.89
2018-05-07T18:37:54.011Z,23.87
2018-05-07T18:40:21.461Z,23.77
2018-05-07T18:42:47.378Z,23.64
2018-05-07T18:45:17.001Z,23.60
2018-05-07T18:47:42.936Z,23.51
2018-05-07T18:50:08.840Z,23.42
2018-05-07T18:52:34.763Z,23.39
2018-05-07T18:55:00.675Z,23.23
2018-05-07T18:57:27.495Z,23.19
2018-05-07T18:59:53.423Z,23.13
2018-05-07T19:02:23.090Z,22.97
2018-05-07T19:04:49.000Z,22.86
2018-05-07T19:07:18.094Z,22.89
2018-05-07T19:09:44.420Z,22.82
2018-05-07T19:12:13.433Z,22.87
2018-05-07T19:14:39.778Z,22.80
2018-05-07T19:17:06.453Z,22.73
2018-05-07T19:19:32.316Z,22.63
2018-05-07T19:22:02.071Z,22.52
2018-05-07T19:24:28.012Z,22.35
2018-05-07T19:26:53.948Z,22.26
2018-05-07T19:29:19.851Z,22.24
2018-05-07T19:31:45.747Z,22.19
2018-05-07T19:34:13.250Z,22.10
2018-05-07T19:36:39.152Z,22.04
2018-05-07T19:39:08.441Z,22.02
2018-05-07T19:41:34.295Z,21.94
2018-05-07T19:44:02.476Z,21.86
2018-05-07T19:46:28.390Z,21.86
2018-05-07T19:48:57.760Z,21.74
2018-05-07T19:51:23.672Z,21.81
2018-05-07T19:53:51.991Z,21.78
2018-05-07T19:56:17.907Z,21.79
2018-05-07T19:58:47.468Z,21.78
2018-05-07T20:01:13.427Z,21.71
2018-05-07T20:03:39.361Z,21.64
2018-05-07T20:06:05.303Z,21.66
2018-05-07T20:08:31.244Z,21.61
2018-05-07T20:10:57.928Z,21.59
2018-05-07T20:13:23.916Z,21.60
2018-05-07T20:15:52.861Z,21.53
2018-05-07T20:18:18.825Z,21.42
2018-05-07T20:20:48.564Z,21.27
2018-05-07T20:23:14.427Z,21.23
2018-05-07T20:25:43.964Z,21.20
2018-05-07T20:28:09.897Z,21.02
2018-05-07T20:30:37.690Z,21.00
2018-05-07T20:33:03.649Z,20.99
2018-05-07T20:35:32.037Z,21.02
2018-05-07T20:49:19.492Z,20.99
2018-05-07T20:51:45.448Z,20.97
2018-05-07T20:54:11.354Z,20.94
2018-05-07T20:56:37.291Z,20.80
2018-05-07T20:59:03.228Z,20.75
2018-05-07T21:01:29.207Z,20.65
2018-05-07T21:03:55.106Z,20.59
2018-05-07T21:06:21.007Z,20.65
2018-05-07T21:08:46.876Z,20.55
2018-05-07T21:11:12.745Z,20.46
2018-05-07T21:13:38.679Z,20.27
2018-05-07T21:16:04.553Z,19.97
2018-05-07T21:18:30.503Z,19.89
2018-05-07T21:20:56.444Z,19.83
2018-05-07T21:23:22.359Z,19.70
2018-05-07T21:25:48.300Z,19.65
2018-05-07T21:28:14.173Z,19.55
2018-05-07T21:30:40.181Z,19.43
2018-05-07T21:33:06.122Z,19.29
2018-05-07T21:35:32.014Z,19.32
2018-05-07T21:37:57.955Z,19.28
2018-05-07T21:40:23.849Z,19.19
2018-05-07T21:42:49.771Z,19.07
2018-05-07T21:45:18.531Z,19.05
2018-05-07T21:47:44.403Z,19.02
2018-05-07T21:50:13.324Z,18.96
2018-05-07T21:52:39.263Z,18.91
2018-05-07T21:55:08.281Z,18.73
2018-05-07T21:57:34.220Z,18.68
2018-05-07T22:00:03.568Z,18.58
2018-05-07T22:02:29.484Z,18.50
2018-05-07T22:04:58.467Z,18.46
2018-05-07T22:07:24.412Z,18.42
2018-05-07T22:09:50.339Z,18.46
2018-05-07T22:12:16.280Z,18.29
2018-05-07T22:14:42.972Z,18.18
2018-05-07T22:17:09.334Z,17.94
2018-05-07T22:19:35.262Z,17.86
2018-05-07T22:22:04.442Z,17.69
2018-05-07T22:24:30.332Z,17.64
2018-05-07T22:26:59.159Z,17.65
2018-05-07T22:29:25.079Z,17.73
2018-05-07T22:31:54.951Z,17.61
2018-05-07T22:34:20.848Z,17.68
2018-05-07T22:36:49.789Z,17.69
2018-05-07T22:39:15.723Z,17.67
2018-05-07T22:41:44.734Z,17.56
2018-05-07T22:44:10.633Z,17.46
2018-05-07T22:46:36.517Z,17.35
2018-05-07T22:49:02.520Z,17.26
2018-05-07T22:51:28.335Z,17.28
2018-05-07T22:53:55.205Z,17.18
2018-05-07T22:56:21.163Z,17.15
2018-05-07T22:58:49.508Z,17.09
2018-05-07T23:01:15.388Z,17.06
2018-05-07T23:03:44.674Z,17.04
2018-05-07T23:06:10.609Z,17.02
2018-05-07T23:08:39.788Z,17.04
2018-05-07T23:11:05.696Z,16.99
2018-05-07T23:13:33.880Z,16.97
2018-05-07T23:15:59.766Z,16.90
2018-05-07T23:18:29.659Z,16.87
2018-05-07T23:20:55.609Z,16.81
2018-05-07T23:23:21.523Z,16.78
2018-05-07T23:25:47.397Z,16.74
2018-05-07T23:28:13.288Z,16.72
2018-05-07T23:30:40.162Z,16.56
2018-05-07T23:33:06.072Z,16.42
2018-05-07T23:35:35.804Z,16.38
2018-05-07T23:38:01.732Z,16.30
2018-05-07T23:40:31.115Z,16.15
2018-05-07T23:42:57.030Z,16.11
2018-05-07T23:45:24.506Z,15.96
2018-05-07T23:47:50.379Z,16.02
2018-05-07T23:50:19.640Z,16.01
2018-05-07T23:52:45.543Z,16.05
2018-05-07T23:55:14.627Z,16.05
2018-05-07T23:57:40.563Z,16.17
